Terminal Aerodrome Forecast
Issued by NWS Wilmington, OH

Current Version | Previous Version | Graphics & Text | Print | Product List | Glossary On
Versions: 1 2 3 4 5 6 7 8 9 10 11 12 13 14 15 16 17 18 19
000
FTUS41 KILN 232339
TAFDAY
TAF
KDAY 232339Z 2400/2424 16006KT P6SM OVC090
     FM240500 19008KT P6SM OVC150 WS020/21040KT
     FM241300 20012KT P6SM SCT030 BKN150
     FM241500 21016G23KT P6SM OVC028
     FM241900 21013G25KT P6SM OVC035=

USA.gov is the U.S. government's official web portal to all federal, state and local government web resources and services.